CST,Max TemperatureF,Mean TemperatureF,Min TemperatureF,Max Dew PointF,MeanDew PointF,Min DewpointF,Max Humidity, Mean Humidity, Min Humidity, Max Sea Level PressureIn, Mean Sea Level PressureIn, Min Sea Level PressureIn, Max VisibilityMiles, Mean VisibilityMiles, Min VisibilityMiles, Max Wind SpeedMPH, Mean Wind SpeedMPH, Max Gust SpeedMPH,PrecipitationIn, CloudCover, Events, WindDirDegrees
2011-11-1,66,52,37,39,37,32,87,58,37,29.91,29.88,29.85,10,10,10,23,9,30,0.00,0,,81
2011-11-2,48,40,33,36,32,28,93,78,50,30.35,30.15,29.92,10,8,1,34,23,50,0.07,7,,4
2011-11-3,46,36,26,27,23,19,80,63,37,30.42,30.34,30.24,10,10,10,17,10,,0.00,0,,301
2011-11-4,55,40,24,28,24,19,80,59,33,30.22,30.08,29.93,10,10,10,26,11,32,0.00,0,,156
2011-11-5,60,50,39,30,28,25,61,42,31,29.89,29.68,29.51,10,10,10,34,20,39,0.00,0,,173
2011-11-6,55,44,33,34,29,23,87,55,29,30.05,29.90,29.58,10,10,10,23,10,37,0.00,0,,295
2011-11-7,44,36,28,37,30,21,87,75,53,30.13,30.05,29.95,10,10,4,25,7,31,0.40,6,,47
2011-11-8,42,40,37,39,36,34,93,90,87,30.17,30.03,29.97,10,7,2,24,15,30,0.24,8,,12
2011-11-9,51,42,32,30,27,25,81,62,38,30.41,30.33,30.20,10,10,10,20,11,25,0.00,0,,312
2011-11-10,57,42,26,34,26,19,86,62,33,30.39,30.26,30.06,10,10,10,9,5,,0.00,0,,253
2011-11-11,66,47,28,34,27,21,86,52,21,29.98,29.88,29.78,10,10,9,12,8,,0.00,0,,271
2011-11-12,69,50,30,36,32,27,93,62,21,29.71,29.54,29.49,10,10,10,13,5,,0.00,0,,224
2011-11-13,60,46,33,34,27,21,66,44,25,29.64,29.56,29.37,10,10,10,23,11,26,0.00,0,,282
2011-11-14,62,48,33,34,30,27,81,55,26,29.83,29.71,29.55,10,10,10,18,9,23,0.00,0,,255
2011-11-15,62,47,32,32,26,21,81,47,20,29.99,29.83,29.70,10,10,10,21,11,25,0.00,0,,334
2011-11-16,35,30,23,28,22,16,87,67,48,30.39,30.26,30.05,10,10,1,21,10,,0.00,5,,7
2011-11-17,53,35,17,27,19,12,93,62,28,30.40,30.22,29.97,10,10,10,28,10,36,0.00,0,,223
2011-11-18,64,50,37,41,30,25,76,53,30,29.85,29.69,29.57,10,10,10,22,13,29,0.00,0,,185
2011-11-19,48,39,30,43,32,21,93,76,56,30.01,29.66,29.44,10,9,0,24,12,29,0.00,2,,297
2011-11-20,35,28,21,23,19,16,86,76,60,30.28,30.20,30.14,10,10,10,15,11,,0.00,2,,29
2011-11-21,35,26,17,28,21,16,93,81,65,30.22,30.14,30.02,10,10,8,8,4,,0.00,0,,9
2011-11-22,60,40,21,34,26,16,93,66,27,30.13,30.07,30.03,10,9,5,16,5,,0.00,1,,307
2011-11-23,69,48,28,34,27,21,80,53,23,30.21,30.17,30.12,10,10,10,10,5,,0.00,0,,259
2011-11-24,73,56,39,41,36,34,87,56,23,30.09,29.96,29.85,10,10,10,29,13,39,0.00,0,,197
2011-11-25,60,52,44,43,36,28,82,58,29,29.82,29.73,29.68,10,10,10,22,10,24,0.00,2,,217
2011-11-26,51,40,30,37,18,3,58,37,22,30.39,30.16,29.78,10,10,10,40,23,48,0.00,4,,338
2011-11-27,46,34,21,12,9,3,63,37,17,30.40,30.33,30.23,10,10,9,18,12,21,0.00,0,,325
2011-11-28,62,40,19,25,18,9,80,49,23,30.19,30.08,29.99,10,10,10,14,4,16,0.00,0,,250
2011-11-29,48,39,30,27,22,12,80,54,27,30.40,30.32,30.24,10,10,8,15,10,,0.00,0,,349
2011-11-30,57,40,23,32,24,16,80,57,36,30.20,29.96,29.79,10,10,10,24,9,31,0.00,0,,186